createdAt,value
2018-07-30T00:00:50.528Z,56.21
2018-07-30T00:01:50.556Z,55.92
2018-07-30T00:03:11.598Z,55.92
2018-07-30T00:03:50.605Z,55.92
2018-07-30T00:04:50.633Z,55.73
2018-07-30T00:05:50.656Z,55.63
2018-07-30T00:06:50.681Z,55.82
2018-07-30T00:07:50.710Z,56.11
2018-07-30T00:09:11.751Z,56.02
2018-07-30T00:09:50.761Z,55.82
2018-07-30T00:10:50.787Z,55.82
2018-07-30T00:11:50.813Z,55.82
2018-07-30T00:12:50.842Z,55.92
2018-07-30T00:13:50.866Z,56.21
2018-07-30T00:15:11.911Z,55.92
2018-07-30T00:15:50.913Z,56.02
2018-07-30T00:16:50.942Z,55.63
2018-07-30T00:17:50.969Z,56.02
2018-07-30T00:18:50.993Z,55.92
2018-07-30T00:19:51.020Z,56.02
2018-07-30T00:21:12.062Z,56.21
2018-07-30T00:21:51.067Z,55.92
2018-07-30T00:22:51.093Z,56.21
2018-07-30T00:23:51.120Z,56.79
2018-07-30T00:24:51.147Z,56.21
2018-07-30T00:25:51.169Z,56.40
2018-07-30T00:27:12.210Z,56.79
2018-07-30T00:27:51.223Z,56.79
2018-07-30T00:28:51.251Z,56.50
2018-07-30T00:29:51.280Z,56.50
2018-07-30T00:30:51.301Z,56.50
2018-07-30T00:31:51.326Z,56.50
2018-07-30T00:33:12.377Z,56.60
2018-07-30T00:33:51.374Z,56.40
2018-07-30T00:34:51.403Z,56.30
2018-07-30T00:35:51.427Z,56.40
2018-07-30T00:36:51.452Z,56.88
2018-07-30T00:37:51.480Z,56.60
2018-07-30T00:39:12.523Z,56.88
2018-07-30T00:39:51.534Z,56.98
2018-07-30T00:40:51.561Z,57.18
2018-07-30T00:41:51.587Z,57.08
2018-07-30T00:42:51.607Z,56.88
2018-07-30T00:43:51.634Z,56.70
2018-07-30T00:45:12.678Z,56.98
2018-07-30T00:45:51.684Z,56.70
2018-07-30T00:46:51.713Z,56.88
2018-07-30T00:47:51.776Z,56.88
2018-07-30T00:48:51.762Z,56.98
2018-07-30T00:49:51.790Z,57.08
2018-07-30T00:51:12.833Z,57.08
2018-07-30T00:51:51.847Z,57.08
2018-07-30T00:52:51.867Z,57.37
2018-07-30T00:53:51.888Z,57.18
2018-07-30T00:54:51.939Z,57.18
2018-07-30T00:55:51.940Z,57.08
2018-07-30T00:57:12.984Z,57.18
2018-07-30T00:57:51.991Z,57.18
2018-07-30T00:58:52.016Z,57.08
2018-07-30T00:59:52.042Z,57.28
2018-07-30T01:00:52.067Z,57.66
2018-07-30T01:01:52.101Z,57.66
2018-07-30T01:03:13.138Z,57.56
2018-07-30T01:03:52.148Z,57.37
2018-07-30T01:04:52.173Z,57.66
2018-07-30T01:05:52.195Z,57.46
2018-07-30T01:06:52.222Z,57.37
2018-07-30T01:07:52.253Z,57.37
2018-07-30T01:09:13.294Z,57.37
2018-07-30T01:09:52.303Z,57.76
2018-07-30T01:10:52.327Z,57.76
2018-07-30T01:11:52.356Z,57.66
2018-07-30T01:12:52.378Z,57.46
2018-07-30T01:13:52.403Z,58.14
2018-07-30T01:15:13.446Z,58.14
2018-07-30T01:15:52.453Z,58.14
2018-07-30T01:16:52.481Z,58.14
2018-07-30T01:17:52.504Z,58.24
2018-07-30T01:18:52.529Z,57.76
2018-07-30T01:19:52.555Z,57.95
2018-07-30T01:21:13.598Z,57.95
2018-07-30T01:21:52.608Z,58.04
2018-07-30T01:22:52.636Z,58.24
2018-07-30T01:23:52.660Z,58.14
2018-07-30T01:24:52.686Z,58.34
2018-07-30T01:25:52.708Z,58.04
2018-07-30T01:27:13.751Z,58.53
2018-07-30T01:27:52.760Z,58.34
2018-07-30T01:28:52.787Z,58.34
2018-07-30T01:29:52.811Z,58.44
2018-07-30T01:30:52.836Z,58.14
2018-07-30T01:31:52.863Z,58.04
2018-07-30T01:33:13.909Z,58.53
2018-07-30T01:33:52.915Z,58.72
2018-07-30T01:34:52.940Z,58.44
2018-07-30T01:35:52.968Z,58.72
2018-07-30T01:36:52.993Z,58.63
2018-07-30T01:37:53.016Z,58.53
2018-07-30T01:39:14.065Z,58.34
2018-07-30T01:39:53.069Z,58.34
2018-07-30T01:40:53.097Z,58.63
2018-07-30T01:41:53.121Z,58.92
2018-07-30T01:42:53.153Z,58.53
2018-07-30T01:43:53.173Z,58.82
2018-07-30T01:45:14.216Z,58.82
2018-07-30T01:45:53.222Z,59.01
2018-07-30T01:46:53.249Z,58.92
2018-07-30T01:47:53.275Z,58.92
2018-07-30T01:48:53.299Z,58.63
2018-07-30T01:49:53.324Z,59.01
2018-07-30T01:51:14.366Z,58.80
2018-07-30T01:51:53.376Z,58.53
2018-07-30T01:52:53.401Z,58.92
2018-07-30T01:53:53.434Z,58.63
2018-07-30T01:54:53.455Z,58.72
2018-07-30T01:55:53.485Z,59.21
2018-07-30T01:57:14.522Z,58.92
2018-07-30T01:57:53.529Z,59.40
2018-07-30T01:58:53.554Z,59.31
2018-07-30T01:59:53.580Z,58.82
2018-07-30T02:00:53.605Z,59.50
2018-07-30T02:01:53.633Z,59.01
2018-07-30T02:03:14.673Z,59.21
2018-07-30T02:03:53.683Z,58.98
2018-07-30T02:04:53.707Z,59.01
2018-07-30T02:05:53.735Z,59.40
2018-07-30T02:06:53.761Z,59.40
2018-07-30T02:07:53.790Z,59.01
2018-07-30T02:09:14.832Z,59.21
2018-07-30T02:09:53.838Z,59.01
2018-07-30T02:10:53.861Z,59.11
2018-07-30T02:11:53.887Z,59.21
2018-07-30T02:12:53.913Z,59.31
2018-07-30T02:13:53.975Z,59.47
2018-07-30T02:15:14.982Z,59.21
2018-07-30T02:15:53.994Z,59.50
2018-07-30T02:16:54.017Z,59.40
2018-07-30T02:17:54.040Z,59.89
2018-07-30T02:18:54.066Z,59.66
2018-07-30T02:19:54.092Z,59.50
2018-07-30T02:21:15.135Z,59.79
2018-07-30T02:21:54.147Z,59.79
2018-07-30T02:22:54.184Z,59.59
2018-07-30T02:23:54.195Z,59.66
2018-07-30T02:24:54.222Z,59.50
2018-07-30T02:25:54.244Z,59.98
2018-07-30T02:27:15.287Z,59.76
2018-07-30T02:27:54.295Z,59.98
2018-07-30T02:28:54.322Z,59.79
2018-07-30T02:29:54.348Z,59.89
2018-07-30T02:30:54.374Z,59.89
2018-07-30T02:31:54.400Z,59.69
2018-07-30T02:33:15.443Z,60.08
2018-07-30T02:33:54.453Z,59.98
2018-07-30T02:34:54.480Z,59.98
2018-07-30T02:35:54.508Z,60.08
2018-07-30T02:36:54.528Z,59.98
2018-07-30T02:37:54.550Z,60.08
2018-07-30T02:39:15.594Z,59.89
2018-07-30T02:39:54.602Z,60.17
2018-07-30T02:40:54.628Z,59.89
2018-07-30T02:41:54.659Z,59.89
2018-07-30T02:42:54.684Z,59.79
2018-07-30T02:43:54.706Z,60.14
2018-07-30T02:45:15.753Z,60.44
2018-07-30T02:45:54.754Z,60.14
2018-07-30T02:46:54.780Z,60.44
2018-07-30T02:47:54.806Z,60.37
2018-07-30T02:48:54.832Z,60.57
2018-07-30T02:49:54.858Z,60.37
2018-07-30T02:51:15.903Z,60.37
2018-07-30T02:51:54.908Z,60.27
2018-07-30T02:52:54.938Z,60.14
2018-07-30T02:53:54.960Z,60.24
2018-07-30T02:54:54.987Z,60.34
2018-07-30T02:55:55.020Z,60.14
2018-07-30T02:57:16.055Z,60.34
2018-07-30T02:57:55.062Z,59.98
2018-07-30T02:58:55.088Z,60.34
2018-07-30T02:59:55.113Z,60.05
2018-07-30T03:00:55.140Z,60.14
2018-07-30T03:01:55.165Z,60.44
2018-07-30T03:03:16.211Z,60.72
2018-07-30T03:03:55.216Z,60.82
2018-07-30T03:04:55.246Z,60.92
2018-07-30T03:05:55.272Z,60.72
2018-07-30T03:06:55.293Z,61.21
2018-07-30T03:07:55.319Z,61.30
2018-07-30T03:09:16.420Z,61.11
2018-07-30T03:09:55.367Z,61.50
2018-07-30T03:10:55.392Z,61.21
2018-07-30T03:11:55.418Z,61.40
2018-07-30T03:12:55.446Z,61.79
2018-07-30T03:13:55.471Z,61.98
2018-07-30T03:15:16.513Z,61.89
2018-07-30T03:15:55.523Z,62.18
2018-07-30T03:16:55.548Z,62.08
2018-07-30T03:17:55.579Z,62.37
2018-07-30T03:18:55.596Z,62.44
2018-07-30T03:19:55.623Z,62.53
2018-07-30T03:21:16.663Z,62.44
2018-07-30T03:21:55.674Z,62.34
2018-07-30T03:22:55.701Z,62.24
2018-07-30T03:23:55.726Z,62.63
2018-07-30T03:24:55.751Z,62.44
2018-07-30T03:25:55.775Z,62.53
2018-07-30T03:27:16.822Z,62.53
2018-07-30T03:27:55.824Z,62.44
2018-07-30T03:28:55.852Z,62.73
2018-07-30T03:29:55.877Z,62.82
2018-07-30T03:30:55.904Z,62.63
2018-07-30T03:31:55.930Z,62.82
2018-07-30T03:33:16.971Z,62.92
2018-07-30T03:33:55.977Z,63.02
2018-07-30T03:34:56.005Z,62.92
2018-07-30T03:35:56.029Z,62.82
2018-07-30T03:36:56.053Z,62.82
2018-07-30T03:37:56.077Z,62.82
2018-07-30T03:39:17.120Z,62.73
2018-07-30T03:39:56.128Z,62.92
2018-07-30T03:40:56.159Z,63.31
2018-07-30T03:41:56.181Z,63.31
2018-07-30T03:42:56.206Z,63.21
2018-07-30T03:43:56.231Z,63.21
2018-07-30T03:45:17.273Z,63.21
2018-07-30T03:45:56.279Z,63.60
2018-07-30T03:46:56.306Z,63.60
2018-07-30T03:47:56.376Z,63.31
2018-07-30T03:48:56.356Z,63.50
2018-07-30T03:49:56.389Z,63.79
2018-07-30T03:51:17.429Z,63.60
2018-07-30T03:51:56.434Z,63.69
2018-07-30T03:52:56.460Z,63.69
2018-07-30T03:53:56.486Z,63.79
2018-07-30T03:54:56.508Z,63.69
2018-07-30T03:55:56.533Z,63.69
2018-07-30T03:57:17.577Z,63.69
2018-07-30T03:57:56.609Z,63.69
2018-07-30T03:58:56.608Z,63.79
2018-07-30T03:59:56.666Z,63.69
2018-07-30T04:00:56.658Z,63.40
2018-07-30T04:01:56.683Z,63.40
2018-07-30T04:03:17.727Z,63.60
2018-07-30T04:03:56.737Z,63.31
2018-07-30T04:04:56.761Z,63.79
2018-07-30T04:05:56.787Z,63.79
2018-07-30T04:06:56.808Z,64.18
2018-07-30T04:07:56.848Z,64.27
2018-07-30T04:09:17.876Z,63.79
2018-07-30T04:09:56.884Z,64.08
2018-07-30T04:10:56.911Z,64.14
2018-07-30T04:11:56.937Z,64.24
2018-07-30T04:12:56.961Z,63.98
2018-07-30T04:13:56.986Z,63.76
2018-07-30T04:15:18.030Z,63.56
2018-07-30T04:15:57.036Z,63.69
2018-07-30T04:16:57.062Z,63.79
2018-07-30T04:17:57.084Z,63.40
2018-07-30T04:18:57.112Z,63.89
2018-07-30T04:19:57.136Z,63.37
2018-07-30T04:21:18.178Z,63.37
2018-07-30T04:21:57.188Z,63.69
2018-07-30T04:22:57.211Z,63.40
2018-07-30T04:23:57.238Z,63.60
2018-07-30T04:24:57.263Z,63.50
2018-07-30T04:25:57.284Z,63.47
2018-07-30T04:27:18.328Z,63.37
2018-07-30T04:27:57.338Z,63.37
2018-07-30T04:28:57.361Z,63.79
2018-07-30T04:29:57.387Z,63.76
2018-07-30T04:30:57.412Z,63.89
2018-07-30T04:31:57.436Z,63.60
2018-07-30T04:33:18.481Z,63.56
2018-07-30T04:33:57.488Z,63.66
2018-07-30T04:34:57.511Z,63.56
2018-07-30T04:35:57.535Z,63.66
2018-07-30T04:36:57.565Z,63.66
2018-07-30T04:37:57.586Z,63.79
2018-07-30T04:39:18.631Z,63.56
2018-07-30T04:39:57.675Z,63.60
2018-07-30T04:40:57.663Z,63.79
2018-07-30T04:41:57.689Z,63.11
2018-07-30T04:42:57.713Z,63.11
2018-07-30T04:43:57.739Z,63.79
2018-07-30T04:45:18.780Z,63.50
2018-07-30T04:45:57.786Z,63.37
2018-07-30T04:46:57.814Z,63.60
2018-07-30T04:47:57.837Z,63.56
2018-07-30T04:48:57.865Z,63.60
2018-07-30T04:49:57.889Z,63.76
2018-07-30T04:51:18.930Z,63.60
2018-07-30T04:51:57.938Z,63.60
2018-07-30T04:52:57.963Z,63.60
2018-07-30T04:53:57.984Z,63.40
2018-07-30T04:54:58.016Z,63.28
2018-07-30T04:55:58.038Z,63.79
2018-07-30T04:57:19.085Z,63.76
2018-07-30T04:57:58.087Z,63.89
2018-07-30T04:58:58.112Z,63.79
2018-07-30T04:59:58.137Z,63.69
2018-07-30T05:00:58.163Z,63.66
2018-07-30T05:01:58.195Z,63.69
2018-07-30T05:03:19.232Z,63.69
2018-07-30T05:03:58.244Z,63.85
2018-07-30T05:04:58.267Z,63.56
2018-07-30T05:05:58.287Z,63.60
2018-07-30T05:06:58.314Z,63.89
2018-07-30T05:07:58.338Z,63.28
2018-07-30T05:09:19.380Z,63.76
2018-07-30T05:09:58.390Z,63.28
2018-07-30T05:10:58.415Z,63.31
2018-07-30T05:11:58.500Z,63.85
2018-07-30T05:12:58.466Z,63.60
2018-07-30T05:13:58.497Z,63.47
2018-07-30T05:15:19.532Z,63.50
2018-07-30T05:15:58.541Z,63.60
2018-07-30T05:16:58.564Z,63.69
2018-07-30T05:17:58.588Z,63.56
2018-07-30T05:18:58.613Z,63.60
2018-07-30T05:19:58.638Z,63.76
2018-07-30T05:21:19.683Z,63.60
2018-07-30T05:21:58.691Z,63.60
2018-07-30T05:22:58.717Z,63.11
2018-07-30T05:23:58.741Z,63.31
2018-07-30T05:24:58.765Z,63.31
2018-07-30T05:25:58.788Z,62.73
2018-07-30T05:27:19.830Z,62.73
2018-07-30T05:27:58.839Z,62.92
2018-07-30T05:28:58.863Z,63.02
2018-07-30T05:29:58.894Z,63.02
2018-07-30T05:30:58.914Z,62.63
2018-07-30T05:31:58.946Z,62.44
2018-07-30T05:33:19.986Z,62.34
2018-07-30T05:33:58.991Z,62.53
2018-07-30T05:34:59.015Z,62.53
2018-07-30T05:35:59.045Z,62.63
2018-07-30T05:36:59.065Z,62.34
2018-07-30T05:37:59.089Z,62.34
2018-07-30T05:39:20.131Z,62.44
2018-07-30T05:39:59.143Z,62.53
2018-07-30T05:40:59.172Z,62.47
2018-07-30T05:41:59.192Z,62.05
2018-07-30T05:42:59.220Z,62.47
2018-07-30T05:43:59.243Z,61.95
2018-07-30T05:45:20.284Z,61.98
2018-07-30T05:45:59.293Z,61.79
2018-07-30T05:46:59.319Z,61.79
2018-07-30T05:47:59.343Z,61.33
2018-07-30T05:48:59.369Z,61.15
2018-07-30T05:49:59.441Z,60.95
2018-07-30T05:51:20.434Z,60.85
2018-07-30T05:51:59.442Z,60.57
2018-07-30T05:52:59.472Z,59.98
2018-07-30T05:53:59.497Z,60.27
2018-07-30T05:54:59.520Z,60.11
2018-07-30T05:55:59.545Z,59.17
2018-07-30T05:57:20.612Z,57.87
2018-07-30T05:57:59.595Z,54.46
2018-07-30T05:58:59.620Z,52.28
2018-07-30T05:59:59.647Z,51.60
2018-07-30T06:00:59.672Z,51.23
2018-07-30T06:01:59.699Z,49.32
2018-07-30T06:03:20.740Z,49.15
2018-07-30T06:03:59.749Z,48.63
2018-07-30T06:04:59.778Z,48.85
2018-07-30T06:05:59.803Z,47.32
2018-07-30T06:06:59.828Z,46.59
2018-07-30T06:07:59.856Z,44.87
2018-07-30T06:09:20.899Z,44.31
2018-07-30T06:09:59.910Z,42.89
2018-07-30T06:10:59.942Z,41.64
2018-07-30T06:11:59.962Z,41.62
2018-07-30T06:12:59.992Z,42.48
2018-07-30T06:14:00.019Z,42.77
2018-07-30T06:15:21.073Z,42.21
2018-07-30T06:16:00.078Z,40.97
2018-07-30T06:17:00.101Z,40.29
2018-07-30T06:18:00.132Z,41.15
2018-07-30T06:19:00.158Z,42.19
2018-07-30T06:20:00.189Z,44.46
2018-07-30T06:21:21.231Z,45.81
2018-07-30T06:22:00.239Z,46.10
2018-07-30T06:23:00.268Z,47.15
2018-07-30T06:24:00.296Z,47.52
2018-07-30T06:25:00.327Z,47.13
2018-07-30T06:26:00.356Z,47.42
2018-07-30T06:27:21.443Z,45.17
2018-07-30T06:28:00.412Z,44.29
2018-07-30T06:29:00.438Z,44.68
2018-07-30T06:30:00.473Z,45.64
2018-07-30T06:31:00.495Z,45.73
2018-07-30T06:32:00.526Z,46.10
2018-07-30T06:33:21.570Z,46.76
2018-07-30T06:34:00.582Z,48.39
2018-07-30T06:35:00.612Z,48.46
2018-07-30T06:36:00.640Z,48.95
2018-07-30T06:37:00.667Z,49.32
2018-07-30T06:38:00.694Z,50.19
2018-07-30T06:39:21.740Z,50.48
2018-07-30T06:40:00.749Z,50.56
2018-07-30T06:41:00.782Z,50.65
2018-07-30T06:42:00.806Z,51.23
2018-07-30T06:43:00.842Z,51.23
2018-07-30T06:44:00.863Z,51.04
2018-07-30T06:45:21.908Z,51.31
2018-07-30T06:46:00.920Z,51.60
2018-07-30T06:47:00.950Z,51.89
2018-07-30T06:48:00.988Z,51.79
2018-07-30T06:49:01.009Z,51.31
2018-07-30T06:50:01.034Z,51.31
2018-07-30T06:51:22.076Z,51.01
2018-07-30T06:52:01.085Z,50.99
2018-07-30T06:53:01.119Z,51.31
2018-07-30T06:54:01.145Z,50.92
2018-07-30T06:55:01.173Z,51.11
2018-07-30T06:56:01.199Z,51.21
2018-07-30T06:57:22.242Z,51.09
2018-07-30T06:58:01.252Z,50.99
2018-07-30T06:59:01.280Z,50.70
2018-07-30T07:00:01.307Z,50.51
2018-07-30T07:01:01.352Z,51.09
2018-07-30T07:02:01.403Z,50.89
2018-07-30T07:03:22.498Z,50.60
2018-07-30T07:04:01.423Z,50.51
2018-07-30T07:05:01.451Z,51.09
2018-07-30T07:06:01.480Z,50.70
2018-07-30T07:07:01.505Z,50.80
2018-07-30T07:08:01.540Z,51.09
2018-07-30T07:09:22.574Z,51.09
2018-07-30T07:10:01.589Z,51.09
2018-07-30T07:11:01.720Z,52.15
2018-07-30T07:12:01.640Z,51.67
2018-07-30T07:13:01.677Z,51.77
2018-07-30T07:14:01.699Z,51.57
2018-07-30T07:15:22.746Z,51.87
2018-07-30T07:16:01.754Z,51.97
2018-07-30T07:17:01.868Z,51.57
2018-07-30T07:18:01.806Z,51.57
2018-07-30T07:19:01.836Z,51.57
2018-07-30T07:20:01.860Z,51.18
2018-07-30T07:21:22.972Z,51.09
2018-07-30T07:22:02.024Z,51.09
2018-07-30T07:23:01.943Z,51.18
2018-07-30T07:24:01.972Z,51.38
2018-07-30T07:25:02.000Z,51.28
2018-07-30T07:26:02.049Z,51.48
2018-07-30T07:27:23.074Z,51.31
2018-07-30T07:28:02.123Z,51.28
2018-07-30T07:29:02.111Z,51.67
2018-07-30T07:30:02.138Z,51.60
2018-07-30T07:31:02.167Z,51.77
2018-07-30T07:32:02.191Z,51.67
2018-07-30T07:33:23.237Z,52.15
2018-07-30T07:34:02.253Z,51.87
2018-07-30T07:35:02.333Z,51.97
2018-07-30T07:36:02.304Z,52.06
2018-07-30T07:37:02.332Z,51.57
2018-07-30T07:38:02.363Z,51.77
2018-07-30T07:39:23.424Z,51.57
2018-07-30T07:40:02.419Z,52.15
2018-07-30T07:41:02.440Z,52.15
2018-07-30T07:42:02.467Z,51.57
2018-07-30T07:43:02.494Z,51.87
2018-07-30T07:44:02.521Z,51.77
2018-07-30T07:45:23.571Z,51.87
2018-07-30T07:46:02.579Z,51.87
2018-07-30T07:47:02.610Z,51.87
2018-07-30T07:48:02.634Z,51.87
2018-07-30T07:49:02.661Z,52.45
2018-07-30T07:50:02.747Z,52.03
2018-07-30T07:51:23.732Z,52.72
2018-07-30T07:52:02.742Z,52.62
2018-07-30T07:53:02.774Z,52.03
2018-07-30T07:54:02.799Z,51.75
2018-07-30T07:55:02.852Z,51.65
2018-07-30T07:56:02.855Z,51.84
2018-07-30T07:57:23.908Z,51.84
2018-07-30T07:58:02.911Z,51.84
2018-07-30T07:59:02.939Z,51.65
2018-07-30T08:00:02.966Z,51.84
2018-07-30T08:01:02.994Z,51.93
2018-07-30T08:02:03.017Z,51.84
2018-07-30T08:03:24.062Z,51.84
2018-07-30T08:04:03.080Z,51.84
2018-07-30T08:05:03.105Z,51.75
2018-07-30T08:06:03.129Z,51.84
2018-07-30T08:07:03.156Z,51.84
2018-07-30T08:08:03.185Z,51.93
2018-07-30T08:09:24.232Z,51.84
2018-07-30T08:10:03.245Z,51.84
2018-07-30T08:11:03.288Z,51.84
2018-07-30T08:12:03.297Z,51.75
2018-07-30T08:13:03.319Z,51.84
2018-07-30T08:14:03.350Z,52.03
2018-07-30T08:15:24.418Z,51.65
2018-07-30T08:16:03.405Z,51.84
2018-07-30T08:17:03.433Z,51.65
2018-07-30T08:18:03.459Z,51.65
2018-07-30T08:19:03.489Z,51.65
2018-07-30T08:20:03.515Z,51.75
2018-07-30T08:21:24.569Z,52.03
2018-07-30T08:22:03.592Z,52.03
2018-07-30T08:23:03.618Z,51.75
2018-07-30T08:24:03.624Z,52.03
2018-07-30T08:25:03.651Z,51.65
2018-07-30T08:26:03.708Z,51.55
2018-07-30T08:27:24.744Z,51.65
2018-07-30T08:28:03.753Z,51.65
2018-07-30T08:29:03.769Z,51.75
2018-07-30T08:30:03.822Z,51.75
2018-07-30T08:31:03.856Z,51.75
2018-07-30T08:32:04.657Z,51.65
2018-07-30T08:33:24.886Z,51.84
2018-07-30T08:34:03.897Z,51.84
2018-07-30T08:35:03.923Z,51.55
2018-07-30T08:36:03.991Z,51.65
2018-07-30T08:37:04.639Z,51.84
2018-07-30T08:38:04.029Z,51.45
2018-07-30T08:39:25.113Z,51.75
2018-07-30T08:40:04.095Z,51.65
2018-07-30T08:41:04.096Z,51.84
2018-07-30T08:42:05.670Z,51.93
2018-07-30T08:43:04.170Z,51.55
2018-07-30T08:44:04.172Z,51.93
2018-07-30T08:45:25.254Z,51.93
2018-07-30T08:46:04.267Z,51.55
2018-07-30T08:47:05.165Z,51.45
2018-07-30T08:48:04.304Z,51.84
2018-07-30T08:49:04.309Z,51.65
2018-07-30T08:50:04.389Z,51.84
2018-07-30T08:51:26.140Z,51.65
2018-07-30T08:52:05.145Z,51.84
2018-07-30T08:53:04.430Z,51.91
2018-07-30T08:54:04.445Z,51.72
2018-07-30T08:55:04.478Z,51.62
2018-07-30T08:56:04.509Z,51.72
2018-07-30T08:57:25.547Z,51.72
2018-07-30T08:58:04.554Z,51.62
2018-07-30T08:59:04.582Z,51.81
2018-07-30T09:00:04.612Z,51.81
2018-07-30T09:01:04.634Z,52.01
2018-07-30T09:02:04.665Z,52.11
2018-07-30T09:03:25.707Z,51.72
2018-07-30T09:04:04.716Z,51.62
2018-07-30T09:05:04.747Z,52.11
2018-07-30T09:06:04.773Z,51.62
2018-07-30T09:07:04.870Z,51.72
2018-07-30T09:08:04.828Z,51.53
2018-07-30T09:09:25.874Z,51.62
2018-07-30T09:10:04.880Z,51.53
2018-07-30T09:11:04.910Z,51.81
2018-07-30T09:12:04.977Z,51.72
2018-07-30T09:13:04.963Z,51.62
2018-07-30T09:14:04.989Z,51.72
2018-07-30T09:15:26.035Z,51.62
2018-07-30T09:16:05.047Z,51.72
2018-07-30T09:17:05.075Z,51.62
2018-07-30T09:18:05.126Z,51.81
2018-07-30T09:19:05.152Z,51.62
2018-07-30T09:20:05.162Z,51.62
2018-07-30T09:21:26.201Z,51.53
2018-07-30T09:22:05.207Z,51.53
2018-07-30T09:23:05.256Z,51.62
2018-07-30T09:24:05.262Z,52.01
2018-07-30T09:25:05.297Z,52.01
2018-07-30T09:26:05.319Z,52.01
2018-07-30T09:27:26.385Z,51.81
2018-07-30T09:28:05.375Z,51.72
2018-07-30T09:29:05.401Z,52.01
2018-07-30T09:30:05.427Z,51.91
2018-07-30T09:31:05.456Z,51.89
2018-07-30T09:32:05.485Z,51.62
2018-07-30T09:33:26.525Z,52.01
2018-07-30T09:34:05.534Z,51.43
2018-07-30T09:35:05.567Z,51.69
2018-07-30T09:36:05.589Z,51.62
2018-07-30T09:37:05.621Z,51.72
2018-07-30T09:38:05.644Z,51.69
2018-07-30T09:39:26.705Z,51.72
2018-07-30T09:40:05.699Z,51.72
2018-07-30T09:41:05.730Z,52.01
2018-07-30T09:42:05.752Z,51.81
2018-07-30T09:43:05.779Z,51.72
2018-07-30T09:44:05.811Z,51.62
2018-07-30T09:45:26.865Z,51.72
2018-07-30T09:46:05.867Z,51.72
2018-07-30T09:47:05.888Z,51.81
2018-07-30T09:48:05.914Z,51.53
2018-07-30T09:49:05.942Z,51.53
2018-07-30T09:50:05.996Z,51.23
2018-07-30T09:51:27.051Z,51.33
2018-07-30T09:52:06.681Z,51.23
2018-07-30T09:53:06.078Z,51.14
2018-07-30T09:54:06.080Z,50.84
2018-07-30T09:55:06.134Z,50.94
2018-07-30T09:56:06.187Z,51.04
2018-07-30T09:57:27.197Z,51.06
2018-07-30T09:58:06.212Z,50.96
2018-07-30T09:59:06.217Z,50.94
2018-07-30T10:00:06.243Z,50.96
2018-07-30T10:01:06.277Z,50.94
2018-07-30T10:02:06.340Z,50.94
2018-07-30T10:03:27.340Z,50.94
2018-07-30T10:04:06.353Z,50.94
2018-07-30T10:05:06.379Z,51.04
2018-07-30T10:06:06.910Z,50.94
2018-07-30T10:07:06.470Z,51.04
2018-07-30T10:08:06.459Z,51.04
2018-07-30T10:09:27.506Z,51.04
2018-07-30T10:10:06.620Z,51.04
2018-07-30T10:11:06.552Z,51.04
2018-07-30T10:12:06.574Z,51.04
2018-07-30T10:13:06.631Z,51.23
2018-07-30T10:14:06.626Z,51.14
2018-07-30T10:15:27.668Z,50.84
2018-07-30T10:16:06.677Z,51.11
2018-07-30T10:17:06.703Z,51.04
2018-07-30T10:18:06.901Z,50.94
2018-07-30T10:19:06.756Z,51.14
2018-07-30T10:20:06.797Z,51.23
2018-07-30T10:21:27.843Z,51.11
2018-07-30T10:22:06.841Z,51.31
2018-07-30T10:23:06.866Z,51.11
2018-07-30T10:24:06.898Z,51.21
2018-07-30T10:25:06.938Z,51.40
2018-07-30T10:26:06.956Z,51.59
2018-07-30T10:27:27.998Z,51.40
2018-07-30T10:28:08.018Z,51.59
2018-07-30T10:29:07.033Z,51.59
2018-07-30T10:30:07.063Z,51.59
2018-07-30T10:31:07.088Z,51.69
2018-07-30T10:32:07.120Z,51.79
2018-07-30T10:33:28.160Z,52.08
2018-07-30T10:34:07.162Z,51.59
2018-07-30T10:35:07.194Z,51.69
2018-07-30T10:36:07.219Z,51.89
2018-07-30T10:37:07.243Z,51.79
2018-07-30T10:38:07.330Z,51.79
2018-07-30T10:39:28.318Z,51.69
2018-07-30T10:40:07.326Z,51.89
2018-07-30T10:41:07.354Z,51.79
2018-07-30T10:42:07.381Z,51.69
2018-07-30T10:43:07.475Z,51.59
2018-07-30T10:44:07.451Z,51.79
2018-07-30T10:45:28.489Z,51.69
2018-07-30T10:46:07.489Z,51.59
2018-07-30T10:47:07.519Z,52.01
2018-07-30T10:48:07.548Z,51.98
2018-07-30T10:49:07.573Z,51.62
2018-07-30T10:50:07.597Z,51.91
2018-07-30T10:51:28.643Z,51.98
2018-07-30T10:52:07.657Z,51.89
2018-07-30T10:53:07.688Z,51.79
2018-07-30T10:54:07.710Z,51.81
2018-07-30T10:55:07.755Z,51.81
2018-07-30T10:56:07.762Z,51.79
2018-07-30T10:57:28.808Z,51.72
2018-07-30T10:58:07.816Z,51.81
2018-07-30T10:59:07.846Z,51.79
2018-07-30T11:00:07.864Z,51.89
2018-07-30T11:01:07.960Z,51.81
2018-07-30T11:02:07.922Z,51.72
2018-07-30T11:03:29.033Z,51.69
2018-07-30T11:04:07.978Z,51.72
2018-07-30T11:05:08.025Z,51.72
2018-07-30T11:06:08.027Z,51.81
2018-07-30T11:07:08.055Z,51.91
2018-07-30T11:08:08.083Z,51.72
2018-07-30T11:09:29.129Z,51.72
2018-07-30T11:10:08.141Z,51.72
2018-07-30T11:11:08.162Z,51.81
2018-07-30T11:12:08.188Z,51.81
2018-07-30T11:13:08.652Z,51.81
2018-07-30T11:14:08.248Z,51.72
2018-07-30T11:15:29.288Z,52.01
2018-07-30T11:16:08.297Z,51.53
2018-07-30T11:17:08.329Z,52.11
2018-07-30T11:18:08.352Z,51.62
2018-07-30T11:19:08.380Z,51.81
2018-07-30T11:20:08.405Z,51.53
2018-07-30T11:21:29.484Z,51.33
2018-07-30T11:22:08.463Z,51.23
2018-07-30T11:23:08.486Z,51.14
2018-07-30T11:24:08.513Z,51.14
2018-07-30T11:25:08.542Z,51.14
2018-07-30T11:26:08.567Z,50.94
2018-07-30T11:27:29.611Z,50.94
2018-07-30T11:28:08.634Z,51.11
2018-07-30T11:29:08.648Z,51.14
2018-07-30T11:30:08.674Z,51.04
2018-07-30T11:31:08.704Z,51.14
2018-07-30T11:32:08.743Z,51.11
2018-07-30T11:33:29.812Z,51.14
2018-07-30T11:34:08.782Z,50.72
2018-07-30T11:35:08.813Z,51.11
2018-07-30T11:36:08.838Z,51.23
2018-07-30T11:37:08.870Z,50.92
2018-07-30T11:38:08.895Z,51.23
2018-07-30T11:39:30.343Z,50.94
2018-07-30T11:40:08.945Z,51.01
2018-07-30T11:41:09.097Z,51.14
2018-07-30T11:42:09.044Z,51.21
2018-07-30T11:43:09.534Z,51.59
2018-07-30T11:44:09.107Z,51.81
2018-07-30T11:45:30.104Z,51.59
2018-07-30T11:46:09.462Z,51.53
2018-07-30T11:47:09.136Z,51.62
2018-07-30T11:48:09.277Z,51.62
2018-07-30T11:49:09.193Z,52.01
2018-07-30T11:50:09.249Z,52.11
2018-07-30T11:51:30.391Z,51.72
2018-07-30T11:52:09.431Z,51.81
2018-07-30T11:53:09.408Z,51.59
2018-07-30T11:54:09.563Z,51.72
2018-07-30T11:55:09.822Z,51.81
2018-07-30T11:56:09.482Z,52.11
2018-07-30T11:57:30.515Z,52.01
2018-07-30T11:58:09.492Z,52.01
2018-07-30T11:59:09.468Z,51.91
2018-07-30T12:00:09.594Z,52.01
2018-07-30T12:01:09.667Z,51.91
2018-07-30T12:02:09.749Z,51.81
2018-07-30T12:03:30.652Z,51.72
2018-07-30T12:04:09.686Z,51.91
2018-07-30T12:05:09.683Z,52.40
2018-07-30T12:06:09.654Z,52.30
2018-07-30T12:07:09.676Z,52.01
2018-07-30T12:08:09.703Z,51.53
2018-07-30T12:09:30.771Z,51.81
2018-07-30T12:10:09.873Z,51.91
2018-07-30T12:11:09.944Z,52.11
2018-07-30T12:12:09.814Z,51.91
2018-07-30T12:13:09.844Z,52.01
2018-07-30T12:14:10.282Z,52.01
2018-07-30T12:15:30.951Z,52.50
2018-07-30T12:16:09.939Z,52.01
2018-07-30T12:17:10.118Z,52.40
2018-07-30T12:18:10.085Z,52.59
2018-07-30T12:19:10.005Z,52.01
2018-07-30T12:20:10.041Z,52.30
2018-07-30T12:21:31.080Z,52.01
2018-07-30T12:22:10.081Z,51.62
2018-07-30T12:23:10.109Z,51.81
2018-07-30T12:24:10.143Z,52.01
2018-07-30T12:25:10.255Z,51.81
2018-07-30T12:26:10.459Z,52.01
2018-07-30T12:27:31.237Z,52.11
2018-07-30T12:28:10.247Z,52.01
2018-07-30T12:29:10.273Z,52.11
2018-07-30T12:30:10.329Z,51.81
2018-07-30T12:31:10.333Z,52.11
2018-07-30T12:32:10.353Z,51.72
2018-07-30T12:33:31.402Z,51.72
2018-07-30T12:34:10.408Z,51.72
2018-07-30T12:35:10.433Z,51.62
2018-07-30T12:36:10.476Z,51.81
2018-07-30T12:37:10.498Z,51.62
2018-07-30T12:38:10.514Z,51.72
2018-07-30T12:39:31.560Z,51.53
2018-07-30T12:40:10.569Z,51.62
2018-07-30T12:41:10.629Z,52.11
2018-07-30T12:42:10.623Z,51.53
2018-07-30T12:43:10.673Z,51.81
2018-07-30T12:44:10.675Z,51.43
2018-07-30T12:45:31.727Z,52.11
2018-07-30T12:46:10.731Z,51.81
2018-07-30T12:47:10.773Z,51.91
2018-07-30T12:48:10.789Z,51.91
2018-07-30T12:49:10.812Z,51.81
2018-07-30T12:50:10.872Z,51.91
2018-07-30T12:51:31.979Z,51.72
2018-07-30T12:52:10.894Z,51.72
2018-07-30T12:53:10.926Z,51.91